createdAt,value
2022-11-30T00:00:55.863Z,10.55
2022-11-30T00:03:22.461Z,6.68
2022-11-30T00:05:49.193Z,7.63
2022-11-30T00:08:15.724Z,6.40
2022-11-30T00:10:42.535Z,6.50
2022-11-30T00:13:09.333Z,7.28
2022-11-30T00:15:36.249Z,6.72
2022-11-30T00:18:02.657Z,5.65
2022-11-30T00:20:30.058Z,5.50
2022-11-30T00:22:56.933Z,7.28
2022-11-30T00:25:24.036Z,6.43
2022-11-30T00:27:50.592Z,7.68
2022-11-30T00:30:16.994Z,8.25
2022-11-30T00:32:43.286Z,6.97
2022-11-30T00:35:09.571Z,6.63
2022-11-30T00:37:36.035Z,7.22
2022-11-30T00:40:02.344Z,8.23
2022-11-30T00:42:28.639Z,8.15
2022-11-30T00:44:54.938Z,8.02
2022-11-30T00:47:21.206Z,4.88
2022-11-30T00:49:47.489Z,10.68
2022-11-30T00:52:13.854Z,5.00
2022-11-30T00:54:40.149Z,7.50
2022-11-30T00:57:06.454Z,8.13
2022-11-30T00:59:32.750Z,7.97
2022-11-30T01:01:59.062Z,5.80
2022-11-30T01:04:25.342Z,7.47
2022-11-30T01:06:51.619Z,8.50
2022-11-30T01:09:18.013Z,5.40
2022-11-30T01:11:44.316Z,5.68
2022-11-30T01:14:10.813Z,4.80
2022-11-30T01:16:37.211Z,6.00
2022-11-30T01:19:04.007Z,5.78
2022-11-30T01:21:30.468Z,9.65
2022-11-30T01:23:56.828Z,10.18
2022-11-30T01:26:23.616Z,6.63
2022-11-30T01:28:53.626Z,8.75
2022-11-30T01:31:20.678Z,8.70
2022-11-30T01:33:54.759Z,5.18
2022-11-30T01:36:22.668Z,10.02
2022-11-30T01:38:50.468Z,6.68
2022-11-30T01:41:21.828Z,5.72
2022-11-30T01:43:49.987Z,7.07
2022-11-30T01:46:19.102Z,5.65
2022-11-30T01:48:45.620Z,4.55
2022-11-30T01:51:11.973Z,4.40
2022-11-30T01:53:38.406Z,6.03
2022-11-30T01:56:04.903Z,5.50
2022-11-30T01:58:32.316Z,3.97
2022-11-30T02:00:59.654Z,7.65
2022-11-30T02:03:32.489Z,9.05
2022-11-30T02:05:59.336Z,7.45
2022-11-30T02:08:26.555Z,6.35
2022-11-30T02:10:54.184Z,5.38
2022-11-30T02:13:23.246Z,8.23
2022-11-30T02:16:08.314Z,6.47
2022-11-30T02:18:55.084Z,10.55
2022-11-30T02:21:24.242Z,8.45
2022-11-30T02:24:09.159Z,8.07
2022-11-30T02:26:55.871Z,8.85
2022-11-30T02:29:24.668Z,8.23
2022-11-30T02:31:53.693Z,8.23
2022-11-30T02:34:21.893Z,5.40
2022-11-30T02:36:48.379Z,8.13
2022-11-30T02:39:14.746Z,5.38
2022-11-30T02:41:41.107Z,5.40
2022-11-30T02:44:08.974Z,5.05
2022-11-30T02:46:41.229Z,4.53
2022-11-30T02:49:26.428Z,5.85
2022-11-30T02:51:53.741Z,5.80
2022-11-30T02:54:20.032Z,7.68
2022-11-30T02:56:46.430Z,5.03
2022-11-30T02:59:12.744Z,5.80
2022-11-30T03:01:39.826Z,4.65
2022-11-30T03:04:06.230Z,3.90
2022-11-30T03:06:32.514Z,5.28
2022-11-30T03:08:58.811Z,5.10
2022-11-30T03:11:25.783Z,5.15
2022-11-30T03:13:52.068Z,4.28
2022-11-30T03:16:18.466Z,4.38
2022-11-30T03:18:44.839Z,4.60
2022-11-30T03:21:12.284Z,8.52
2022-11-30T03:23:38.710Z,6.60
2022-11-30T03:26:05.719Z,7.07
2022-11-30T03:28:32.102Z,5.68
2022-11-30T03:30:58.453Z,5.28
2022-11-30T03:33:24.972Z,6.03
2022-11-30T03:36:00.458Z,3.28
2022-11-30T03:38:26.854Z,3.60
2022-11-30T03:40:59.298Z,5.28
2022-11-30T03:43:25.582Z,6.13
2022-11-30T03:45:51.870Z,5.47
2022-11-30T03:48:18.169Z,6.22
2022-11-30T03:50:49.646Z,6.25
2022-11-30T03:53:19.746Z,6.50
2022-11-30T03:55:46.267Z,5.90
2022-11-30T03:58:12.822Z,4.55
2022-11-30T04:00:39.374Z,4.57
2022-11-30T04:03:05.805Z,5.38
2022-11-30T04:05:32.149Z,5.63
2022-11-30T04:07:58.525Z,11.00
2022-11-30T04:10:24.906Z,5.60
2022-11-30T04:12:51.244Z,5.78
2022-11-30T04:15:17.631Z,4.45
2022-11-30T04:17:43.935Z,6.07
2022-11-30T04:20:10.899Z,4.43
2022-11-30T04:22:37.223Z,3.35
2022-11-30T04:25:03.602Z,2.88
2022-11-30T04:27:29.978Z,3.38
2022-11-30T04:29:56.264Z,5.70
2022-11-30T04:32:22.552Z,3.17
2022-11-30T04:34:49.243Z,6.03
2022-11-30T04:37:15.667Z,4.30
2022-11-30T04:39:42.064Z,6.43
2022-11-30T04:42:08.328Z,9.30
2022-11-30T04:44:34.630Z,5.35
2022-11-30T04:47:01.021Z,5.80
2022-11-30T04:49:27.330Z,4.93
2022-11-30T04:51:53.699Z,9.23
2022-11-30T04:54:19.994Z,8.40
2022-11-30T04:56:46.290Z,5.55
2022-11-30T04:59:12.582Z,8.50
2022-11-30T05:01:38.937Z,7.55
2022-11-30T05:04:05.289Z,7.22
2022-11-30T05:06:31.664Z,5.15
2022-11-30T05:08:58.054Z,8.38
2022-11-30T05:11:24.330Z,5.43
2022-11-30T05:13:50.649Z,9.05
2022-11-30T05:16:17.137Z,5.85
2022-11-30T05:18:43.479Z,5.90
2022-11-30T05:21:09.928Z,6.88
2022-11-30T05:23:36.239Z,8.48
2022-11-30T05:26:02.879Z,7.97
2022-11-30T05:28:29.265Z,5.60
2022-11-30T05:30:55.595Z,8.20
2022-11-30T05:33:21.889Z,7.40
2022-11-30T05:35:48.277Z,8.02
2022-11-30T05:38:14.666Z,6.65
2022-11-30T05:40:40.972Z,8.90
2022-11-30T05:43:08.211Z,8.43
2022-11-30T05:45:34.497Z,10.35
2022-11-30T05:48:00.871Z,9.70
2022-11-30T05:50:27.256Z,8.43
2022-11-30T05:52:56.197Z,8.00
2022-11-30T05:55:23.313Z,10.70
2022-11-30T05:57:49.672Z,6.38
2022-11-30T06:00:16.283Z,8.88
2022-11-30T06:02:42.646Z,9.27
2022-11-30T06:05:09.111Z,10.43
2022-11-30T06:07:35.491Z,5.70
2022-11-30T06:10:01.827Z,6.80
2022-11-30T06:12:28.138Z,8.45
2022-11-30T06:14:54.598Z,8.13
2022-11-30T06:17:20.946Z,7.15
2022-11-30T06:19:47.252Z,5.88
2022-11-30T06:22:13.635Z,7.82
2022-11-30T06:24:40.004Z,8.15
2022-11-30T06:27:06.570Z,6.82
2022-11-30T06:29:32.907Z,7.80
2022-11-30T06:31:59.352Z,7.03
2022-11-30T06:34:25.693Z,5.45
2022-11-30T06:36:51.979Z,7.80
2022-11-30T06:39:31.474Z,6.85
2022-11-30T06:42:05.932Z,6.03
2022-11-30T06:44:32.278Z,8.25
2022-11-30T06:46:58.591Z,5.47
2022-11-30T06:49:24.951Z,8.07
2022-11-30T06:51:51.232Z,8.30
2022-11-30T06:54:17.575Z,6.93
2022-11-30T06:56:43.895Z,7.72
2022-11-30T06:59:10.214Z,9.63
2022-11-30T07:01:36.548Z,7.88
2022-11-30T07:04:02.918Z,8.45
2022-11-30T07:06:29.420Z,8.20
2022-11-30T07:08:55.756Z,10.25
2022-11-30T07:11:22.050Z,10.25
2022-11-30T07:13:48.330Z,9.10
2022-11-30T07:16:14.716Z,8.45
2022-11-30T07:18:41.088Z,8.05
2022-11-30T07:21:07.405Z,9.65
2022-11-30T07:23:56.250Z,9.63
2022-11-30T07:26:23.340Z,13.07
2022-11-30T07:28:54.356Z,10.80
2022-11-30T07:31:22.153Z,9.70
2022-11-30T07:33:49.302Z,9.43
2022-11-30T07:36:16.937Z,11.15
2022-11-30T07:38:43.344Z,12.63
2022-11-30T07:41:09.746Z,8.55
2022-11-30T07:43:36.052Z,8.48
2022-11-30T07:46:02.520Z,7.47
2022-11-30T07:48:29.250Z,6.93
2022-11-30T07:51:01.342Z,9.20
2022-11-30T07:53:28.286Z,7.32
2022-11-30T07:55:56.984Z,7.95
2022-11-30T07:58:23.486Z,7.00
2022-11-30T08:00:49.888Z,8.38
2022-11-30T08:03:16.302Z,7.65
2022-11-30T08:05:42.660Z,8.40
2022-11-30T08:08:08.943Z,8.02
2022-11-30T08:10:35.351Z,9.63
2022-11-30T08:13:01.646Z,6.72
2022-11-30T08:15:32.575Z,8.65
2022-11-30T08:18:00.195Z,7.80
2022-11-30T08:20:26.522Z,8.57
2022-11-30T08:22:52.886Z,7.90
2022-11-30T08:25:19.231Z,8.05
2022-11-30T08:27:45.593Z,8.05
2022-11-30T08:30:11.981Z,7.70
2022-11-30T08:32:38.304Z,10.95
2022-11-30T08:35:04.859Z,13.95
2022-11-30T08:37:31.180Z,9.13
2022-11-30T08:39:57.738Z,8.13
2022-11-30T08:42:24.026Z,10.65
2022-11-30T08:44:50.313Z,7.95
2022-11-30T08:47:16.674Z,7.18
2022-11-30T08:49:42.980Z,11.88
2022-11-30T08:52:18.245Z,9.27
2022-11-30T08:57:12.772Z,8.50
2022-11-30T08:59:39.066Z,7.13
2022-11-30T09:02:05.618Z,10.02
2022-11-30T09:04:31.949Z,11.13
2022-11-30T09:06:59.464Z,8.90
2022-11-30T09:09:26.178Z,8.10
2022-11-30T09:11:52.518Z,12.48
2022-11-30T09:14:18.806Z,12.07
2022-11-30T09:16:45.133Z,19.30
2022-11-30T09:19:11.673Z,8.98
2022-11-30T09:21:38.040Z,12.25
2022-11-30T09:24:04.526Z,10.25
2022-11-30T09:26:30.934Z,12.65
2022-11-30T09:28:57.229Z,13.00
2022-11-30T09:31:24.406Z,12.55
2022-11-30T09:33:51.126Z,14.13
2022-11-30T09:36:19.208Z,16.73
2022-11-30T09:38:46.042Z,14.82
2022-11-30T09:41:30.771Z,14.85
2022-11-30T09:44:20.135Z,14.55
2022-11-30T09:46:50.456Z,14.25
2022-11-30T09:49:29.891Z,17.30
2022-11-30T09:51:56.811Z,13.50
2022-11-30T09:54:35.605Z,13.48
2022-11-30T09:57:20.749Z,14.77
2022-11-30T10:00:16.323Z,17.35
2022-11-30T10:02:43.002Z,13.63
2022-11-30T10:05:38.572Z,13.93
2022-11-30T10:08:23.582Z,13.13
2022-11-30T10:10:52.737Z,14.25
2022-11-30T10:13:23.244Z,10.32
2022-11-30T10:15:49.758Z,14.43
2022-11-30T10:18:22.296Z,13.80
2022-11-30T10:20:51.387Z,13.60
2022-11-30T10:23:18.397Z,15.07
2022-11-30T10:25:58.077Z,15.40
2022-11-30T10:28:46.945Z,12.45
2022-11-30T10:31:14.753Z,16.98
2022-11-30T10:34:03.471Z,13.15
2022-11-30T10:36:34.725Z,14.65
2022-11-30T10:39:03.587Z,14.95
2022-11-30T10:41:32.266Z,14.50
2022-11-30T10:44:22.918Z,16.58
2022-11-30T10:46:54.993Z,16.48
2022-11-30T10:49:23.450Z,16.00
2022-11-30T10:51:52.689Z,13.95
2022-11-30T10:54:20.641Z,19.23
2022-11-30T10:56:47.274Z,15.50
2022-11-30T10:59:21.838Z,12.82
2022-11-30T11:01:48.186Z,18.45
2022-11-30T11:04:19.158Z,20.55
2022-11-30T11:06:53.691Z,13.43
2022-11-30T11:09:29.142Z,16.80
2022-11-30T11:11:57.298Z,11.70
2022-11-30T11:14:24.267Z,14.75
2022-11-30T11:16:58.644Z,12.88
2022-11-30T11:19:33.502Z,18.92
2022-11-30T11:22:04.366Z,13.13
2022-11-30T11:24:30.926Z,15.60
2022-11-30T11:26:57.416Z,20.33
2022-11-30T11:29:31.416Z,15.57
2022-11-30T11:32:16.716Z,14.82
2022-11-30T11:34:47.960Z,14.65
2022-11-30T11:37:20.171Z,16.17
2022-11-30T11:39:57.126Z,15.63
2022-11-30T11:42:23.884Z,15.38
2022-11-30T11:44:52.199Z,15.65
2022-11-30T11:47:25.302Z,12.02
2022-11-30T11:49:52.769Z,14.20
2022-11-30T11:52:19.182Z,13.63
2022-11-30T11:54:48.688Z,15.75
2022-11-30T11:57:16.426Z,16.58
2022-11-30T11:59:42.801Z,15.88
2022-11-30T12:02:12.110Z,12.95
2022-11-30T12:04:57.620Z,13.80
2022-11-30T12:07:27.468Z,17.40
2022-11-30T12:10:02.704Z,13.02
2022-11-30T12:12:29.142Z,14.07
2022-11-30T12:14:56.105Z,11.18
2022-11-30T12:17:45.795Z,15.35
2022-11-30T12:20:21.070Z,12.00
2022-11-30T12:22:53.309Z,15.32
2022-11-30T12:25:27.370Z,15.70
2022-11-30T12:28:19.710Z,11.98
2022-11-30T12:30:51.827Z,12.80
2022-11-30T12:33:20.965Z,13.82
2022-11-30T12:35:47.243Z,14.13
2022-11-30T12:38:19.826Z,13.95
2022-11-30T12:41:00.998Z,16.35
2022-11-30T12:43:46.175Z,12.00
2022-11-30T12:46:15.779Z,16.15
2022-11-30T12:48:48.037Z,16.63
2022-11-30T12:51:22.839Z,15.68
2022-11-30T12:54:01.679Z,14.35
2022-11-30T12:56:40.238Z,15.23
2022-11-30T12:59:19.926Z,15.93
2022-11-30T13:01:49.707Z,14.55
2022-11-30T13:04:27.414Z,15.63
2022-11-30T13:06:57.592Z,17.02
2022-11-30T13:09:30.376Z,17.48
2022-11-30T13:11:59.180Z,16.88
2022-11-30T13:14:27.450Z,14.88
2022-11-30T13:16:59.818Z,19.75
2022-11-30T13:19:42.828Z,17.45
2022-11-30T13:22:12.461Z,20.33
2022-11-30T13:24:45.298Z,19.13
2022-11-30T13:27:15.611Z,18.60
2022-11-30T13:29:41.983Z,20.48
2022-11-30T13:32:27.499Z,21.90
2022-11-30T13:35:16.744Z,21.45
2022-11-30T13:42:35.490Z,23.50
2022-11-30T13:45:14.144Z,23.35
2022-11-30T13:47:48.218Z,22.77
2022-11-30T13:50:24.263Z,23.75
2022-11-30T13:53:03.251Z,22.85
2022-11-30T13:55:49.903Z,23.20
2022-11-30T13:58:17.552Z,20.38
2022-11-30T14:00:47.987Z,18.90
2022-11-30T14:03:20.367Z,15.02
2022-11-30T14:05:53.372Z,16.92
2022-11-30T14:08:22.688Z,14.90
2022-11-30T14:10:48.962Z,11.43
2022-11-30T14:13:22.764Z,15.68
2022-11-30T14:16:00.651Z,15.05
2022-11-30T14:18:30.176Z,14.15
2022-11-30T14:21:15.186Z,12.15
2022-11-30T14:24:01.790Z,17.15
2022-11-30T14:26:36.971Z,17.02
2022-11-30T14:29:16.702Z,18.40
2022-11-30T14:31:46.133Z,17.38
2022-11-30T14:34:23.604Z,15.00
2022-11-30T14:36:55.335Z,16.27
2022-11-30T14:39:26.375Z,19.45
2022-11-30T14:41:53.085Z,13.05
2022-11-30T14:44:19.394Z,15.20
2022-11-30T14:46:45.734Z,16.83
2022-11-30T14:49:14.447Z,18.23
2022-11-30T14:51:45.524Z,14.88
2022-11-30T14:54:17.016Z,17.90
2022-11-30T14:56:48.227Z,14.48
2022-11-30T14:59:15.610Z,12.57
2022-11-30T15:01:42.188Z,12.13
2022-11-30T15:04:12.923Z,16.83
2022-11-30T15:06:39.649Z,14.32
2022-11-30T15:09:12.998Z,14.48
2022-11-30T15:11:43.235Z,21.30
2022-11-30T15:14:10.396Z,19.17
2022-11-30T15:16:37.307Z,20.48
2022-11-30T15:19:20.064Z,25.35
2022-11-30T15:21:46.845Z,20.60
2022-11-30T15:24:13.307Z,20.70
2022-11-30T15:26:52.051Z,20.35
2022-11-30T15:29:18.459Z,21.98
2022-11-30T15:31:45.688Z,23.63
2022-11-30T15:34:26.189Z,17.23
2022-11-30T15:36:56.111Z,20.67
2022-11-30T15:39:23.771Z,23.45
2022-11-30T15:41:57.671Z,21.80
2022-11-30T15:44:24.103Z,20.23
2022-11-30T15:46:58.014Z,21.92
2022-11-30T15:49:26.226Z,21.08
2022-11-30T15:51:59.826Z,23.88
2022-11-30T15:54:45.742Z,23.33
2022-11-30T15:57:12.042Z,25.90
2022-11-30T15:59:38.478Z,21.75
2022-11-30T16:02:08.311Z,19.13
2022-11-30T16:04:57.739Z,22.63
2022-11-30T16:07:30.991Z,25.10
2022-11-30T16:10:23.583Z,27.17
2022-11-30T16:12:50.969Z,25.92
2022-11-30T16:15:25.000Z,22.08
2022-11-30T16:17:52.243Z,22.88
2022-11-30T16:20:20.812Z,24.92
2022-11-30T16:22:47.848Z,25.85
2022-11-30T16:25:21.562Z,34.75
2022-11-30T16:27:48.294Z,28.27
2022-11-30T16:30:16.026Z,24.77
2022-11-30T16:32:42.434Z,30.35
2022-11-30T16:35:16.733Z,21.48
2022-11-30T16:37:43.030Z,20.98
2022-11-30T16:40:09.549Z,24.38
2022-11-30T16:42:35.867Z,27.30
2022-11-30T16:45:02.239Z,23.75
2022-11-30T16:47:28.587Z,25.25
2022-11-30T16:49:54.924Z,25.35
2022-11-30T16:52:21.247Z,25.20
2022-11-30T16:54:47.531Z,27.10
2022-11-30T16:57:13.935Z,30.80
2022-11-30T16:59:40.221Z,27.65
2022-11-30T17:02:15.500Z,24.83
2022-11-30T17:04:41.850Z,26.88
2022-11-30T17:07:08.287Z,25.92
2022-11-30T17:09:34.680Z,26.85
2022-11-30T17:12:01.470Z,27.67
2022-11-30T17:14:28.308Z,27.00
2022-11-30T17:16:54.719Z,28.40
2022-11-30T17:19:22.021Z,27.77
2022-11-30T17:21:50.747Z,26.83
2022-11-30T17:24:17.110Z,27.83
2022-11-30T17:26:43.622Z,22.58
2022-11-30T17:29:09.933Z,24.05
2022-11-30T17:31:36.922Z,23.52
2022-11-30T17:34:03.603Z,25.13
2022-11-30T17:36:29.971Z,26.98
2022-11-30T17:38:56.694Z,22.55
2022-11-30T17:41:23.834Z,27.85
2022-11-30T17:43:50.302Z,27.42
2022-11-30T17:46:17.707Z,23.90
2022-11-30T17:48:44.183Z,23.73
2022-11-30T17:51:10.724Z,24.77
2022-11-30T17:53:37.602Z,22.73
2022-11-30T17:56:04.928Z,25.63
2022-11-30T17:58:35.286Z,24.60
2022-11-30T18:01:03.498Z,22.08
2022-11-30T18:03:29.977Z,25.77
2022-11-30T18:05:59.804Z,15.60
2022-11-30T18:08:26.092Z,24.40
2022-11-30T18:10:52.374Z,24.92
2022-11-30T18:13:18.648Z,24.58
2022-11-30T18:15:44.950Z,24.70
2022-11-30T18:18:11.255Z,26.77
2022-11-30T18:20:37.592Z,27.30
2022-11-30T18:23:03.927Z,27.20
2022-11-30T18:25:30.242Z,24.58
2022-11-30T18:27:56.640Z,25.35
2022-11-30T18:30:23.041Z,25.63
2022-11-30T18:32:49.406Z,25.10
2022-11-30T18:35:15.805Z,20.75
2022-11-30T18:37:42.115Z,22.40
2022-11-30T18:40:08.681Z,20.92
2022-11-30T18:42:35.162Z,23.73
2022-11-30T18:45:01.530Z,25.88
2022-11-30T18:47:27.832Z,24.67
2022-11-30T18:49:54.363Z,22.80
2022-11-30T18:52:20.687Z,27.13
2022-11-30T18:54:47.357Z,23.80
2022-11-30T18:57:13.886Z,23.45
2022-11-30T18:59:40.285Z,25.05
2022-11-30T19:02:09.109Z,25.83
2022-11-30T19:04:35.482Z,26.73
2022-11-30T19:07:01.765Z,24.67
2022-11-30T19:09:28.216Z,22.77
2022-11-30T19:11:54.522Z,26.58
2022-11-30T19:14:20.829Z,24.77
2022-11-30T19:16:47.282Z,22.33
2022-11-30T19:19:14.140Z,26.80
2022-11-30T19:21:42.062Z,27.42
2022-11-30T19:24:09.093Z,28.75
2022-11-30T19:26:36.168Z,24.75
2022-11-30T19:29:02.490Z,27.83
2022-11-30T19:31:28.884Z,25.70
2022-11-30T19:33:55.632Z,25.00
2022-11-30T19:36:26.306Z,27.27
2022-11-30T19:38:52.906Z,25.77
2022-11-30T19:41:20.141Z,24.60
2022-11-30T19:43:54.778Z,27.70
2022-11-30T19:46:23.858Z,21.65
2022-11-30T19:48:54.855Z,23.48
2022-11-30T19:51:21.152Z,23.35
2022-11-30T19:53:47.470Z,24.48
2022-11-30T19:56:15.460Z,24.35
2022-11-30T19:58:43.777Z,27.77
2022-11-30T20:01:13.889Z,24.90
2022-11-30T20:03:40.276Z,24.90
2022-11-30T20:06:06.806Z,29.13
2022-11-30T20:08:33.135Z,26.20
2022-11-30T20:10:59.476Z,24.77
2022-11-30T20:13:25.798Z,24.25
2022-11-30T20:15:52.149Z,26.33
2022-11-30T20:18:18.500Z,25.05
2022-11-30T20:20:44.819Z,27.15
2022-11-30T20:23:11.114Z,23.67
2022-11-30T20:25:37.438Z,24.95
2022-11-30T20:28:08.216Z,26.88
2022-11-30T20:30:37.517Z,27.60
2022-11-30T20:33:03.866Z,26.90
2022-11-30T20:35:30.201Z,30.55
2022-11-30T20:37:56.491Z,19.40
2022-11-30T20:40:23.759Z,22.67
2022-11-30T20:42:51.028Z,24.33
2022-11-30T20:45:17.368Z,24.48
2022-11-30T20:47:43.680Z,26.10
2022-11-30T20:50:10.378Z,25.73
2022-11-30T20:52:36.775Z,21.63
2022-11-30T20:55:03.083Z,26.55
2022-11-30T20:57:29.435Z,23.13
2022-11-30T20:59:55.827Z,23.33
2022-11-30T21:02:22.207Z,23.42
2022-11-30T21:04:48.789Z,21.13
2022-11-30T21:07:15.426Z,24.15
2022-11-30T21:09:41.730Z,24.90
2022-11-30T21:12:08.159Z,23.90
2022-11-30T21:14:34.433Z,23.00
2022-11-30T21:17:00.715Z,23.60
2022-11-30T21:19:27.135Z,24.52
2022-11-30T21:21:55.415Z,26.40
2022-11-30T21:24:21.747Z,26.73
2022-11-30T21:26:48.081Z,21.27
2022-11-30T21:29:15.875Z,25.95
2022-11-30T21:31:42.693Z,15.88
2022-11-30T21:34:09.365Z,24.67
2022-11-30T21:36:35.759Z,24.38
2022-11-30T21:39:05.940Z,12.10
2022-11-30T21:41:33.191Z,22.67
2022-11-30T21:43:59.471Z,18.77
2022-11-30T21:46:25.922Z,21.38
2022-11-30T21:48:52.346Z,27.45
2022-11-30T21:51:22.433Z,20.15
2022-11-30T21:53:50.535Z,19.92
2022-11-30T21:56:19.017Z,14.50
2022-11-30T21:58:46.371Z,20.02
2022-11-30T22:01:13.988Z,23.55
2022-11-30T22:03:40.444Z,20.67
2022-11-30T22:06:08.327Z,20.25
2022-11-30T22:08:35.275Z,24.13
2022-11-30T22:11:06.048Z,21.80
2022-11-30T22:13:32.774Z,19.30
2022-11-30T22:16:00.160Z,22.30
2022-11-30T22:18:26.652Z,14.63
2022-11-30T22:20:52.970Z,12.98
2022-11-30T22:23:19.274Z,21.50
2022-11-30T22:25:48.100Z,24.38
2022-11-30T22:28:14.450Z,22.38
2022-11-30T22:30:47.106Z,24.77
2022-11-30T22:33:13.437Z,17.77
2022-11-30T22:35:39.890Z,23.13
2022-11-30T22:38:06.403Z,14.35
2022-11-30T22:40:32.712Z,26.73
2022-11-30T22:42:59.043Z,17.90
2022-11-30T22:45:25.851Z,19.33
2022-11-30T22:47:52.128Z,26.23
2022-11-30T22:50:18.546Z,12.68
2022-11-30T22:53:02.342Z,23.42
2022-11-30T22:55:29.937Z,26.83
2022-11-30T22:57:56.503Z,26.85
2022-11-30T23:00:22.892Z,28.48
2022-11-30T23:02:49.302Z,14.10
2022-11-30T23:05:15.650Z,23.58
2022-11-30T23:07:43.529Z,22.65
2022-11-30T23:10:09.932Z,21.27
2022-11-30T23:12:58.498Z,24.80
2022-11-30T23:15:23.278Z,26.63
2022-11-30T23:17:52.085Z,29.27
2022-11-30T23:20:18.385Z,27.70
2022-11-30T23:22:44.703Z,20.77
2022-11-30T23:25:11.007Z,30.50
2022-11-30T23:27:37.378Z,27.35
2022-11-30T23:30:04.744Z,26.67
2022-11-30T23:32:31.058Z,16.25
2022-11-30T23:34:57.388Z,22.83
2022-11-30T23:37:23.801Z,25.60
2022-11-30T23:39:50.352Z,27.92
2022-11-30T23:42:16.839Z,25.90
2022-11-30T23:44:43.187Z,28.77
2022-11-30T23:47:13.032Z,26.70
2022-11-30T23:49:41.754Z,23.20
2022-11-30T23:52:08.055Z,24.85
2022-11-30T23:54:34.383Z,25.95
2022-11-30T23:57:00.688Z,25.67
2022-11-30T23:59:27.024Z,21.45
